sensor_id;sensor_type;location;lat;lon;timestamp;pressure;altitude;pressure_sealevel;temperature;humidity
45078;BME280;60508;42.622;25.416;2023-05-11T00:02:20;97227.44;;;10.35;74.20
45078;BME280;60508;42.622;25.416;2023-05-11T00:04:45;97223.22;;;9.97;75.51
45078;BME280;60508;42.622;25.416;2023-05-11T00:07:11;97217.66;;;10.11;75.69
45078;BME280;60508;42.622;25.416;2023-05-11T00:09:37;97216.16;;;10.27;75.26
45078;BME280;60508;42.622;25.416;2023-05-11T00:12:04;97220.31;;;10.41;74.43
45078;BME280;60508;42.622;25.416;2023-05-11T00:14:30;97224.06;;;10.40;74.40
45078;BME280;60508;42.622;25.416;2023-05-11T00:16:56;97230.59;;;10.44;74.29
45078;BME280;60508;42.622;25.416;2023-05-11T00:19:23;97228.59;;;10.39;73.90
45078;BME280;60508;42.622;25.416;2023-05-11T00:21:49;97227.22;;;10.37;74.24
45078;BME280;60508;42.622;25.416;2023-05-11T00:24:14;97226.97;;;10.38;74.12
45078;BME280;60508;42.622;25.416;2023-05-11T00:26:41;97228.72;;;10.33;74.26
45078;BME280;60508;42.622;25.416;2023-05-11T00:29:06;97236.06;;;10.37;73.73
45078;BME280;60508;42.622;25.416;2023-05-11T00:31:32;97222.84;;;10.24;73.57
45078;BME280;60508;42.622;25.416;2023-05-11T00:33:58;97239.63;;;10.19;73.49
45078;BME280;60508;42.622;25.416;2023-05-11T00:36:24;97243.16;;;10.32;73.01
45078;BME280;60508;42.622;25.416;2023-05-11T00:38:50;97236.97;;;10.31;72.58
45078;BME280;60508;42.622;25.416;2023-05-11T00:41:17;97253.75;;;10.27;73.01
45078;BME280;60508;42.622;25.416;2023-05-11T00:43:43;97246.25;;;10.17;73.11
45078;BME280;60508;42.622;25.416;2023-05-11T00:46:09;97253.06;;;10.19;73.37
45078;BME280;60508;42.622;25.416;2023-05-11T00:48:35;97249.91;;;10.22;72.94
45078;BME280;60508;42.622;25.416;2023-05-11T00:51:03;97263.25;;;10.29;72.76
45078;BME280;60508;42.622;25.416;2023-05-11T00:53:28;97260.03;;;10.39;72.52
45078;BME280;60508;42.622;25.416;2023-05-11T00:55:54;97249.38;;;10.32;71.92
45078;BME280;60508;42.622;25.416;2023-05-11T00:58:21;97258.28;;;10.45;71.76
45078;BME280;60508;42.622;25.416;2023-05-11T01:00:48;97259.69;;;10.47;71.50
45078;BME280;60508;42.622;25.416;2023-05-11T01:03:15;97263.19;;;10.48;71.38
45078;BME280;60508;42.622;25.416;2023-05-11T01:08:53;97272.44;;;10.52;71.16
45078;BME280;60508;42.622;25.416;2023-05-11T01:14:13;97269.28;;;10.55;70.38
45078;BME280;60508;42.622;25.416;2023-05-11T01:16:43;97265.31;;;10.57;70.51
45078;BME280;60508;42.622;25.416;2023-05-11T01:21:56;97254.31;;;10.59;70.00
45078;BME280;60508;42.622;25.416;2023-05-11T01:33:06;97275.28;;;10.92;69.23
45078;BME280;60508;42.622;25.416;2023-05-11T01:35:37;97277.97;;;10.92;69.23
45078;BME280;60508;42.622;25.416;2023-05-11T01:38:10;97278.19;;;10.91;68.32
45078;BME280;60508;42.622;25.416;2023-05-11T01:40:38;97269.34;;;10.90;68.81
45078;BME280;60508;42.622;25.416;2023-05-11T01:43:10;97263.00;;;10.85;69.03
45078;BME280;60508;42.622;25.416;2023-05-11T01:45:40;97261.16;;;10.85;68.87
45078;BME280;60508;42.622;25.416;2023-05-11T01:48:16;97270.72;;;10.93;68.11
45078;BME280;60508;42.622;25.416;2023-05-11T01:50:43;97263.84;;;10.85;68.15
45078;BME280;60508;42.622;25.416;2023-05-11T01:53:11;97254.81;;;10.80;68.24
45078;BME280;60508;42.622;25.416;2023-05-11T01:55:39;97258.09;;;10.82;68.70
45078;BME280;60508;42.622;25.416;2023-05-11T01:58:09;97262.41;;;10.83;68.32
45078;BME280;60508;42.622;25.416;2023-05-11T02:00:36;97263.47;;;10.82;68.08
45078;BME280;60508;42.622;25.416;2023-05-11T02:03:04;97258.09;;;10.70;68.30
45078;BME280;60508;42.622;25.416;2023-05-11T02:05:32;97256.91;;;10.54;69.31
45078;BME280;60508;42.622;25.416;2023-05-11T02:08:01;97253.16;;;10.55;68.64
45078;BME280;60508;42.622;25.416;2023-05-11T02:10:29;97265.19;;;10.52;68.75
45078;BME280;60508;42.622;25.416;2023-05-11T02:12:58;97257.25;;;10.57;68.76
45078;BME280;60508;42.622;25.416;2023-05-11T02:15:25;97264.38;;;10.52;68.88
45078;BME280;60508;42.622;25.416;2023-05-11T02:17:52;97257.56;;;10.37;69.98
45078;BME280;60508;42.622;25.416;2023-05-11T02:20:19;97255.16;;;10.17;70.61
45078;BME280;60508;42.622;25.416;2023-05-11T02:22:45;97251.38;;;10.07;70.60
45078;BME280;60508;42.622;25.416;2023-05-11T02:25:13;97258.75;;;10.11;70.65
45078;BME280;60508;42.622;25.416;2023-05-11T02:27:40;97258.78;;;9.93;71.51
45078;BME280;60508;42.622;25.416;2023-05-11T02:30:07;97265.50;;;10.02;71.73
45078;BME280;60508;42.622;25.416;2023-05-11T02:32:38;97262.81;;;10.02;71.96
45078;BME280;60508;42.622;25.416;2023-05-11T02:35:12;97258.13;;;9.97;72.53
45078;BME280;60508;42.622;25.416;2023-05-11T02:37:42;97257.16;;;9.92;73.62
45078;BME280;60508;42.622;25.416;2023-05-11T02:40:12;97257.56;;;10.07;73.21
45078;BME280;60508;42.622;25.416;2023-05-11T02:42:42;97258.44;;;10.31;72.21
45078;BME280;60508;42.622;25.416;2023-05-11T02:45:10;97261.06;;;10.38;71.44
45078;BME280;60508;42.622;25.416;2023-05-11T02:47:54;97265.94;;;10.29;71.78
45078;BME280;60508;42.622;25.416;2023-05-11T02:50:26;97260.03;;;10.39;71.50
45078;BME280;60508;42.622;25.416;2023-05-11T02:52:55;97256.56;;;10.32;71.97
45078;BME280;60508;42.622;25.416;2023-05-11T02:55:25;97252.38;;;10.24;72.08
45078;BME280;60508;42.622;25.416;2023-05-11T02:57:52;97252.50;;;10.29;72.03
45078;BME280;60508;42.622;25.416;2023-05-11T03:00:18;97255.88;;;10.24;72.04
45078;BME280;60508;42.622;25.416;2023-05-11T03:02:45;97254.44;;;10.22;72.38
45078;BME280;60508;42.622;25.416;2023-05-11T03:05:11;97265.06;;;10.17;73.05
45078;BME280;60508;42.622;25.416;2023-05-11T03:07:37;97263.69;;;10.26;72.81
45078;BME280;60508;42.622;25.416;2023-05-11T03:10:03;97251.91;;;10.27;72.08
45078;BME280;60508;42.622;25.416;2023-05-11T03:12:35;97265.13;;;10.29;72.12
45078;BME280;60508;42.622;25.416;2023-05-11T03:15:03;97263.13;;;10.24;72.54
45078;BME280;60508;42.622;25.416;2023-05-11T03:17:32;97267.53;;;10.18;72.20
45078;BME280;60508;42.622;25.416;2023-05-11T03:19:59;97263.81;;;10.19;72.62
45078;BME280;60508;42.622;25.416;2023-05-11T03:22:29;97265.06;;;10.17;72.83
45078;BME280;60508;42.622;25.416;2023-05-11T03:24:56;97276.88;;;10.16;72.68
45078;BME280;60508;42.622;25.416;2023-05-11T03:27:23;97268.06;;;10.09;72.93
45078;BME280;60508;42.622;25.416;2023-05-11T03:29:50;97279.50;;;10.04;73.08
45078;BME280;60508;42.622;25.416;2023-05-11T03:32:17;97272.50;;;10.03;72.84
45078;BME280;60508;42.622;25.416;2023-05-11T03:34:43;97275.78;;;10.05;72.84
45078;BME280;60508;42.622;25.416;2023-05-11T03:37:12;97278.47;;;10.05;72.64
45078;BME280;60508;42.622;25.416;2023-05-11T03:39:41;97277.94;;;9.96;72.62
45078;BME280;60508;42.622;25.416;2023-05-11T03:42:11;97282.72;;;9.94;72.39
45078;BME280;60508;42.622;25.416;2023-05-11T03:44:41;97279.69;;;9.91;71.72
45078;BME280;60508;42.622;25.416;2023-05-11T03:47:09;97279.72;;;10.02;71.38
45078;BME280;60508;42.622;25.416;2023-05-11T03:49:36;97280.47;;;10.10;71.64
45078;BME280;60508;42.622;25.416;2023-05-11T03:52:04;97280.13;;;10.18;71.42
45078;BME280;60508;42.622;25.416;2023-05-11T03:54:31;97282.38;;;10.21;70.78
45078;BME280;60508;42.622;25.416;2023-05-11T03:56:56;97284.69;;;10.17;70.28
45078;BME280;60508;42.622;25.416;2023-05-11T03:59:22;97285.63;;;10.23;70.67
45078;BME280;60508;42.622;25.416;2023-05-11T04:01:50;97279.28;;;10.05;69.63
45078;BME280;60508;42.622;25.416;2023-05-11T04:04:26;97292.97;;;10.16;69.04
45078;BME280;60508;42.622;25.416;2023-05-11T04:06:53;97293.13;;;10.21;68.31
45078;BME280;60508;42.622;25.416;2023-05-11T04:09:21;97292.50;;;10.37;67.79
45078;BME280;60508;42.622;25.416;2023-05-11T04:11:46;97292.25;;;10.39;66.97
45078;BME280;60508;42.622;25.416;2023-05-11T04:14:12;97292.63;;;10.43;66.02
45078;BME280;60508;42.622;25.416;2023-05-11T04:16:38;97303.13;;;10.44;65.28
45078;BME280;60508;42.622;25.416;2023-05-11T04:19:04;97298.97;;;10.48;64.50
45078;BME280;60508;42.622;25.416;2023-05-11T04:21:31;97294.63;;;10.47;64.23
45078;BME280;60508;42.622;25.416;2023-05-11T04:23:57;97285.75;;;10.58;63.90
45078;BME280;60508;42.622;25.416;2023-05-11T04:26:23;97295.94;;;10.56;64.37
45078;BME280;60508;42.622;25.416;2023-05-11T04:28:49;97304.13;;;10.62;64.86
45078;BME280;60508;42.622;25.416;2023-05-11T04:31:15;97293.50;;;10.67;65.10
45078;BME280;60508;42.622;25.416;2023-05-11T04:33:41;97298.16;;;10.59;64.14
45078;BME280;60508;42.622;25.416;2023-05-11T04:36:07;97298.97;;;10.60;65.14
45078;BME280;60508;42.622;25.416;2023-05-11T04:38:33;97295.81;;;10.63;65.28
45078;BME280;60508;42.622;25.416;2023-05-11T04:41:04;97298.41;;;10.70;65.07
45078;BME280;60508;42.622;25.416;2023-05-11T04:43:30;97303.09;;;10.74;65.69
45078;BME280;60508;42.622;25.416;2023-05-11T04:45:56;97306.63;;;10.87;65.35
45078;BME280;60508;42.622;25.416;2023-05-11T04:48:26;97304.84;;;10.81;65.12
45078;BME280;60508;42.622;25.416;2023-05-11T04:50:53;97291.31;;;10.75;66.41
45078;BME280;60508;42.622;25.416;2023-05-11T04:53:22;97296.53;;;10.70;66.41
45078;BME280;60508;42.622;25.416;2023-05-11T04:55:48;97298.19;;;10.83;66.45
45078;BME280;60508;42.622;25.416;2023-05-11T04:58:14;97301.66;;;10.72;66.66
45078;BME280;60508;42.622;25.416;2023-05-11T05:00:40;97300.63;;;10.31;67.76
45078;BME280;60508;42.622;25.416;2023-05-11T05:03:06;97300.34;;;10.51;67.65
45078;BME280;60508;42.622;25.416;2023-05-11T05:05:32;97301.31;;;10.56;67.72
45078;BME280;60508;42.622;25.416;2023-05-11T05:07:58;97272.78;;;10.44;66.89
45078;BME280;60508;42.622;25.416;2023-05-11T05:10:24;97299.59;;;10.74;66.26
45078;BME280;60508;42.622;25.416;2023-05-11T05:12:50;97295.25;;;10.73;66.51
45078;BME280;60508;42.622;25.416;2023-05-11T05:15:16;97298.28;;;10.88;66.44
45078;BME280;60508;42.622;25.416;2023-05-11T05:17:42;97299.03;;;10.84;65.49
45078;BME280;60508;42.622;25.416;2023-05-11T05:20:09;97299.59;;;10.74;65.21
45078;BME280;60508;42.622;25.416;2023-05-11T05:22:35;97304.25;;;10.78;64.77
45078;BME280;60508;42.622;25.416;2023-05-11T05:25:01;97313.25;;;10.72;66.55
45078;BME280;60508;42.622;25.416;2023-05-11T05:27:28;97295.13;;;10.80;65.92
45078;BME280;60508;42.622;25.416;2023-05-11T05:29:55;97302.84;;;10.76;66.36
45078;BME280;60508;42.622;25.416;2023-05-11T05:32:23;97312.22;;;10.97;66.95
45078;BME280;60508;42.622;25.416;2023-05-11T05:34:50;97316.00;;;11.08;66.44
45078;BME280;60508;42.622;25.416;2023-05-11T05:37:16;97296.44;;;11.12;65.16
45078;BME280;60508;42.622;25.416;2023-05-11T05:39:42;97310.13;;;10.87;65.36
45078;BME280;60508;42.622;25.416;2023-05-11T05:42:08;97315.16;;;11.07;65.40
45078;BME280;60508;42.622;25.416;2023-05-11T05:44:34;97331.63;;;11.11;63.37
45078;BME280;60508;42.622;25.416;2023-05-11T05:47:01;97315.72;;;10.86;64.95
45078;BME280;60508;42.622;25.416;2023-05-11T05:49:30;97312.69;;;10.82;65.51
45078;BME280;60508;42.622;25.416;2023-05-11T05:51:57;97304.41;;;10.95;65.17
45078;BME280;60508;42.622;25.416;2023-05-11T05:54:23;97314.78;;;11.15;64.19
45078;BME280;60508;42.622;25.416;2023-05-11T05:56:49;97330.47;;;11.19;62.77
45078;BME280;60508;42.622;25.416;2023-05-11T05:59:15;97319.72;;;10.95;63.43
45078;BME280;60508;42.622;25.416;2023-05-11T06:01:43;97314.78;;;11.15;64.00
45078;BME280;60508;42.622;25.416;2023-05-11T06:04:14;97333.41;;;11.29;63.27
45078;BME280;60508;42.622;25.416;2023-05-11T06:06:40;97332.81;;;11.03;62.83
45078;BME280;60508;42.622;25.416;2023-05-11T06:09:06;97340.84;;;10.91;63.70
45078;BME280;60508;42.622;25.416;2023-05-11T06:11:32;97335.22;;;10.81;63.44
45078;BME280;60508;42.622;25.416;2023-05-11T06:13:58;97329.53;;;11.01;63.16
45078;BME280;60508;42.622;25.416;2023-05-11T06:16:24;97349.28;;;11.19;61.94
45078;BME280;60508;42.622;25.416;2023-05-11T06:18:51;97345.91;;;11.47;60.19
45078;BME280;60508;42.622;25.416;2023-05-11T06:21:17;97339.94;;;11.33;60.96
45078;BME280;60508;42.622;25.416;2023-05-11T06:23:43;97352.78;;;11.07;60.48
45078;BME280;60508;42.622;25.416;2023-05-11T06:26:09;97339.00;;;11.15;62.34
45078;BME280;60508;42.622;25.416;2023-05-11T06:28:37;97333.84;;;11.49;61.19
45078;BME280;60508;42.622;25.416;2023-05-11T06:31:06;97337.94;;;11.76;59.48
45078;BME280;60508;42.622;25.416;2023-05-11T06:33:35;97347.72;;;11.82;58.24
45078;BME280;60508;42.622;25.416;2023-05-11T06:36:06;97339.31;;;11.90;58.15
45078;BME280;60508;42.622;25.416;2023-05-11T06:38:34;97342.34;;;11.82;57.40
45078;BME280;60508;42.622;25.416;2023-05-11T06:41:00;97354.09;;;11.28;57.95
45078;BME280;60508;42.622;25.416;2023-05-11T06:43:26;97348.00;;;11.33;60.02
45078;BME280;60508;42.622;25.416;2023-05-11T06:45:52;97338.38;;;11.84;60.16
45078;BME280;60508;42.622;25.416;2023-05-11T06:48:19;97332.72;;;12.10;57.86
45078;BME280;60508;42.622;25.416;2023-05-11T06:50:48;97331.63;;;12.22;57.48
45078;BME280;60508;42.622;25.416;2023-05-11T06:53:14;97339.97;;;12.09;57.11
45078;BME280;60508;42.622;25.416;2023-05-11T06:55:42;97339.91;;;11.68;57.66
45078;BME280;60508;42.622;25.416;2023-05-11T06:58:08;97329.97;;;11.57;60.07
45078;BME280;60508;42.622;25.416;2023-05-11T07:00:34;97331.09;;;11.85;59.01
45078;BME280;60508;42.622;25.416;2023-05-11T07:03:00;97327.81;;;11.95;58.09
45078;BME280;60508;42.622;25.416;2023-05-11T07:05:26;97337.03;;;12.39;56.78
45078;BME280;60508;42.622;25.416;2023-05-11T07:07:52;97322.38;;;12.64;55.57
45078;BME280;60508;42.622;25.416;2023-05-11T07:10:18;97334.91;;;12.41;54.99
45078;BME280;60508;42.622;25.416;2023-05-11T07:12:44;97334.16;;;12.58;55.87
45078;BME280;60508;42.622;25.416;2023-05-11T07:15:10;97325.19;;;12.69;56.63
45078;BME280;60508;42.622;25.416;2023-05-11T07:17:37;97321.34;;;12.99;56.56
45078;BME280;60508;42.622;25.416;2023-05-11T07:20:03;97319.78;;;12.86;55.76
45078;BME280;60508;42.622;25.416;2023-05-11T07:22:29;97324.28;;;12.97;55.40
45078;BME280;60508;42.622;25.416;2023-05-11T07:24:55;97329.19;;;13.35;54.07
45078;BME280;60508;42.622;25.416;2023-05-11T07:27:22;97319.03;;;13.42;53.47
45078;BME280;60508;42.622;25.416;2023-05-11T07:29:47;97318.94;;;13.54;53.26
45078;BME280;60508;42.622;25.416;2023-05-11T07:32:14;97321.16;;;13.40;52.21
45078;BME280;60508;42.622;25.416;2023-05-11T07:34:39;97316.28;;;13.03;54.93
45078;BME280;60508;42.622;25.416;2023-05-11T07:37:05;97311.06;;;13.13;55.06
45078;BME280;60508;42.622;25.416;2023-05-11T07:39:33;97319.88;;;13.08;53.91
45078;BME280;60508;42.622;25.416;2023-05-11T07:41:59;97322.63;;;13.47;53.64
45078;BME280;60508;42.622;25.416;2023-05-11T07:44:25;97317.63;;;13.78;51.84
45078;BME280;60508;42.622;25.416;2023-05-11T07:46:51;97317.34;;;13.75;51.81
45078;BME280;60508;42.622;25.416;2023-05-11T07:49:17;97314.75;;;14.07;52.09
45078;BME280;60508;42.622;25.416;2023-05-11T07:51:43;97311.00;;;14.35;51.07
45078;BME280;60508;42.622;25.416;2023-05-11T07:54:09;97322.72;;;14.19;50.02
45078;BME280;60508;42.622;25.416;2023-05-11T07:56:35;97316.56;;;14.01;50.60
45078;BME280;60508;42.622;25.416;2023-05-11T07:59:01;97317.25;;;14.14;50.90
45078;BME280;60508;42.622;25.416;2023-05-11T08:01:27;97315.31;;;13.87;49.63
45078;BME280;60508;42.622;25.416;2023-05-11T08:03:53;97324.19;;;13.82;49.62
45078;BME280;60508;42.622;25.416;2023-05-11T08:06:19;97329.56;;;13.60;49.78
45078;BME280;60508;42.622;25.416;2023-05-11T08:08:44;97322.53;;;13.81;49.09
45078;BME280;60508;42.622;25.416;2023-05-11T08:11:10;97318.84;;;13.87;49.38
45078;BME280;60508;42.622;25.416;2023-05-11T08:13:36;97321.91;;;13.96;50.52
45078;BME280;60508;42.622;25.416;2023-05-11T08:16:02;97320.66;;;14.04;50.00
45078;BME280;60508;42.622;25.416;2023-05-11T08:18:29;97322.00;;;14.29;50.64
45078;BME280;60508;42.622;25.416;2023-05-11T08:20:55;97318.31;;;14.62;49.56
45078;BME280;60508;42.622;25.416;2023-05-11T08:23:21;97325.38;;;14.95;48.66
45078;BME280;60508;42.622;25.416;2023-05-11T08:25:53;97327.38;;;14.23;49.21
45078;BME280;60508;42.622;25.416;2023-05-11T08:28:20;97331.50;;;13.87;51.21
45078;BME280;60508;42.622;25.416;2023-05-11T08:30:53;97322.88;;;13.46;51.37
45078;BME280;60508;42.622;25.416;2023-05-11T08:33:19;97320.59;;;13.21;52.51
45078;BME280;60508;42.622;25.416;2023-05-11T08:35:44;97334.56;;;13.51;52.56
45078;BME280;60508;42.622;25.416;2023-05-11T08:38:12;97329.97;;;13.91;53.06
45078;BME280;60508;42.622;25.416;2023-05-11T08:40:38;97327.16;;;14.57;51.39
45078;BME280;60508;42.622;25.416;2023-05-11T08:43:08;97318.44;;;14.77;50.07
45078;BME280;60508;42.622;25.416;2023-05-11T08:45:36;97326.78;;;15.03;47.98
45078;BME280;60508;42.622;25.416;2023-05-11T08:48:03;97326.06;;;14.81;49.49
45078;BME280;60508;42.622;25.416;2023-05-11T08:50:30;97324.47;;;14.85;49.41
45078;BME280;60508;42.622;25.416;2023-05-11T08:52:56;97320.00;;;14.68;50.74
45078;BME280;60508;42.622;25.416;2023-05-11T08:55:25;97311.44;;;14.54;51.46
45078;BME280;60508;42.622;25.416;2023-05-11T08:57:52;97326.00;;;14.75;48.86
45078;BME280;60508;42.622;25.416;2023-05-11T09:00:19;97315.53;;;15.17;47.79
45078;BME280;60508;42.622;25.416;2023-05-11T09:02:45;97316.50;;;15.38;46.24
45078;BME280;60508;42.622;25.416;2023-05-11T09:05:13;97312.78;;;16.02;45.88
45078;BME280;60508;42.622;25.416;2023-05-11T09:07:39;97313.69;;;16.49;44.76
45078;BME280;60508;42.622;25.416;2023-05-11T09:10:07;97298.56;;;16.78;44.57
45078;BME280;60508;42.622;25.416;2023-05-11T09:12:34;97307.25;;;16.75;43.67
45078;BME280;60508;42.622;25.416;2023-05-11T09:15:00;97309.44;;;16.89;44.18
45078;BME280;60508;42.622;25.416;2023-05-11T09:17:26;97315.09;;;16.82;42.11
45078;BME280;60508;42.622;25.416;2023-05-11T09:20:01;97285.81;;;16.69;43.83
45078;BME280;60508;42.622;25.416;2023-05-11T09:22:33;97293.13;;;16.78;42.13
45078;BME280;60508;42.622;25.416;2023-05-11T09:25:03;97306.06;;;16.25;43.22
45078;BME280;60508;42.622;25.416;2023-05-11T09:27:29;97296.88;;;16.52;44.17
45078;BME280;60508;42.622;25.416;2023-05-11T09:29:56;97290.38;;;17.40;43.79
45078;BME280;60508;42.622;25.416;2023-05-11T09:32:22;97285.25;;;17.18;40.73
45078;BME280;60508;42.622;25.416;2023-05-11T09:34:48;97286.59;;;17.26;42.59
45078;BME280;60508;42.622;25.416;2023-05-11T09:37:16;97289.59;;;17.19;42.25
45078;BME280;60508;42.622;25.416;2023-05-11T09:39:42;97283.41;;;16.93;40.31
45078;BME280;60508;42.622;25.416;2023-05-11T09:42:17;97284.44;;;16.56;42.17
45078;BME280;60508;42.622;25.416;2023-05-11T09:44:44;97278.22;;;17.07;42.92
45078;BME280;60508;42.622;25.416;2023-05-11T09:47:15;97264.88;;;17.36;41.07
45078;BME280;60508;42.622;25.416;2023-05-11T09:49:42;97276.31;;;16.82;41.49
45078;BME280;60508;42.622;25.416;2023-05-11T09:52:13;97277.09;;;16.46;43.52
45078;BME280;60508;42.622;25.416;2023-05-11T09:54:50;97276.19;;;16.15;43.58
45078;BME280;60508;42.622;25.416;2023-05-11T09:59:48;97271.97;;;16.80;43.10
45078;BME280;60508;42.622;25.416;2023-05-11T10:02:20;97270.34;;;17.10;42.19
45078;BME280;60508;42.622;25.416;2023-05-11T10:04:47;97261.13;;;17.17;42.29
45078;BME280;60508;42.622;25.416;2023-05-11T10:07:29;97269.56;;;16.89;41.56
45078;BME280;60508;42.622;25.416;2023-05-11T10:09:58;97264.38;;;16.98;41.67
45078;BME280;60508;42.622;25.416;2023-05-11T10:12:24;97270.56;;;16.21;42.34
45078;BME280;60508;42.622;25.416;2023-05-11T10:15:01;97260.22;;;16.13;43.96
45078;BME280;60508;42.622;25.416;2023-05-11T10:17:27;97257.59;;;16.80;43.69
45078;BME280;60508;42.622;25.416;2023-05-11T10:19:54;97257.56;;;17.21;42.72
45078;BME280;60508;42.622;25.416;2023-05-11T10:22:26;97244.19;;;17.56;41.59
45078;BME280;60508;42.622;25.416;2023-05-11T10:24:56;97249.59;;;17.61;41.70
45078;BME280;60508;42.622;25.416;2023-05-11T10:27:22;97256.41;;;17.48;39.89
45078;BME280;60508;42.622;25.416;2023-05-11T10:29:49;97261.13;;;18.02;40.62
45078;BME280;60508;42.622;25.416;2023-05-11T10:32:16;97246.66;;;18.52;39.67
45078;BME280;60508;42.622;25.416;2023-05-11T10:34:44;97243.50;;;17.95;40.73
45078;BME280;60508;42.622;25.416;2023-05-11T10:37:15;97247.25;;;17.99;39.05
45078;BME280;60508;42.622;25.416;2023-05-11T10:39:43;97239.75;;;17.75;38.00
45078;BME280;60508;42.622;25.416;2023-05-11T10:44:59;97243.34;;;17.55;40.72
45078;BME280;60508;42.622;25.416;2023-05-11T10:47:43;97240.47;;;18.01;39.00
45078;BME280;60508;42.622;25.416;2023-05-11T10:58:12;97229.81;;;17.45;38.79
45078;BME280;60508;42.622;25.416;2023-05-11T11:03:17;97233.88;;;18.13;38.50
45078;BME280;60508;42.622;25.416;2023-05-11T11:05:43;97231.59;;;18.30;38.41
45078;BME280;60508;42.622;25.416;2023-05-11T11:08:11;97238.34;;;17.93;38.86
45078;BME280;60508;42.622;25.416;2023-05-11T11:10:39;97241.59;;;17.85;39.74
45078;BME280;60508;42.622;25.416;2023-05-11T11:13:09;97230.31;;;18.17;38.07
45078;BME280;60508;42.622;25.416;2023-05-11T11:18:21;97223.38;;;18.35;37.35
45078;BME280;60508;42.622;25.416;2023-05-11T11:20:52;97227.06;;;18.10;38.58
45078;BME280;60508;42.622;25.416;2023-05-11T11:23:43;97228.00;;;17.85;39.39
45078;BME280;60508;42.622;25.416;2023-05-11T11:26:12;97215.78;;;17.87;39.26
45078;BME280;60508;42.622;25.416;2023-05-11T11:31:30;97216.03;;;18.41;38.56
45078;BME280;60508;42.622;25.416;2023-05-11T11:33:58;97204.59;;;18.73;37.67
45078;BME280;60508;42.622;25.416;2023-05-11T11:39:27;97201.19;;;18.92;37.90
45078;BME280;60508;42.622;25.416;2023-05-11T11:42:05;97193.94;;;18.77;37.53
45078;BME280;60508;42.622;25.416;2023-05-11T11:44:33;97181.59;;;18.55;38.32
45078;BME280;60508;42.622;25.416;2023-05-11T11:47:19;97184.13;;;18.12;38.41
45078;BME280;60508;42.622;25.416;2023-05-11T11:49:50;97183.00;;;18.53;38.75
45078;BME280;60508;42.622;25.416;2023-05-11T11:54:52;97170.69;;;18.26;39.35
45078;BME280;60508;42.622;25.416;2023-05-11T12:00:07;97185.97;;;19.15;38.61
45078;BME280;60508;42.622;25.416;2023-05-11T12:02:44;97182.84;;;19.27;37.79
45078;BME280;60508;42.622;25.416;2023-05-11T12:05:12;97181.41;;;19.10;38.04
45078;BME280;60508;42.622;25.416;2023-05-11T12:07:46;97184.09;;;18.86;38.68
45078;BME280;60508;42.622;25.416;2023-05-11T12:10:14;97178.25;;;18.69;38.78
45078;BME280;60508;42.622;25.416;2023-05-11T12:12:45;97174.94;;;18.72;38.78
45078;BME280;60508;42.622;25.416;2023-05-11T12:15:30;97171.97;;;19.46;36.21
45078;BME280;60508;42.622;25.416;2023-05-11T12:17:59;97181.06;;;19.41;36.53
45078;BME280;60508;42.622;25.416;2023-05-11T12:20:27;97174.22;;;20.25;34.76
45078;BME280;60508;42.622;25.416;2023-05-11T12:22:53;97166.88;;;20.39;33.95
45078;BME280;60508;42.622;25.416;2023-05-11T12:25:19;97171.56;;;20.72;33.68
45078;BME280;60508;42.622;25.416;2023-05-11T12:27:54;97154.78;;;21.53;33.22
45078;BME280;60508;42.622;25.416;2023-05-11T12:30:25;97155.22;;;21.41;32.73
45078;BME280;60508;42.622;25.416;2023-05-11T12:32:52;97148.91;;;20.71;34.13
45078;BME280;60508;42.622;25.416;2023-05-11T12:35:23;97157.63;;;19.40;35.88
45078;BME280;60508;42.622;25.416;2023-05-11T12:37:50;97155.13;;;19.20;36.78
45078;BME280;60508;42.622;25.416;2023-05-11T12:40:16;97135.53;;;19.42;36.09
45078;BME280;60508;42.622;25.416;2023-05-11T12:43:08;97139.19;;;19.75;36.31
45078;BME280;60508;42.622;25.416;2023-05-11T12:45:41;97140.03;;;19.51;36.34
45078;BME280;60508;42.622;25.416;2023-05-11T12:48:07;97145.94;;;19.15;36.53
45078;BME280;60508;42.622;25.416;2023-05-11T12:50:39;97142.78;;;19.03;35.96
45078;BME280;60508;42.622;25.416;2023-05-11T12:55:39;97135.06;;;20.68;34.55
45078;BME280;60508;42.622;25.416;2023-05-11T12:58:15;97134.06;;;20.45;34.31
45078;BME280;60508;42.622;25.416;2023-05-11T13:00:50;97133.75;;;19.94;34.87
45078;BME280;60508;42.622;25.416;2023-05-11T13:03:25;97129.25;;;20.03;34.86
45078;BME280;60508;42.622;25.416;2023-05-11T13:05:51;97140.75;;;19.81;34.85
45078;BME280;60508;42.622;25.416;2023-05-11T13:08:18;97136.75;;;19.74;34.75
45078;BME280;60508;42.622;25.416;2023-05-11T13:10:45;97135.41;;;19.28;34.80
45078;BME280;60508;42.622;25.416;2023-05-11T13:13:32;97127.97;;;19.14;34.73
45078;BME280;60508;42.622;25.416;2023-05-11T13:15:58;97128.13;;;18.40;36.18
45078;BME280;60508;42.622;25.416;2023-05-11T13:18:24;97124.84;;;18.43;36.24
45078;BME280;60508;42.622;25.416;2023-05-11T13:21:04;97112.53;;;18.22;36.49
45078;BME280;60508;42.622;25.416;2023-05-11T13:23:30;97115.97;;;17.98;37.12
45078;BME280;60508;42.622;25.416;2023-05-11T13:25:56;97113.94;;;18.14;36.71
45078;BME280;60508;42.622;25.416;2023-05-11T13:28:22;97108.78;;;18.13;36.49
45078;BME280;60508;42.622;25.416;2023-05-11T13:30:50;97107.84;;;17.93;36.69
45078;BME280;60508;42.622;25.416;2023-05-11T13:33:17;97114.84;;;18.04;37.04
45078;BME280;60508;42.622;25.416;2023-05-11T13:35:44;97115.47;;;17.91;37.63
45078;BME280;60508;42.622;25.416;2023-05-11T13:38:10;97122.19;;;18.04;36.54
45078;BME280;60508;42.622;25.416;2023-05-11T13:40:37;97125.03;;;17.78;36.69
45078;BME280;60508;42.622;25.416;2023-05-11T13:43:03;97115.72;;;17.45;37.63
45078;BME280;60508;42.622;25.416;2023-05-11T13:45:29;97114.34;;;17.42;38.98